Time;durP1;ratioP1;P1;durP2;ratioP2;P2;SDS_P1;SDS_P2;PMS_P1;PMS_P2;Temp;Humidity;BMP_temperature;BMP_pressure;BME280_temperature;BME280_humidity;BME280_pressure;Samples;Min_cycle;Max_cycle;Signal;HPM_P1;HPM_P2
2022/01/28 00:04:50;;;;;;;26.77;5.23;;;4.50;99.90;;;;;;5038370;28;20653;-81
2022/01/28 00:07:16;;;;;;;21.37;3.87;;;4.40;99.90;;;;;;5038952;28;20174;-82
2022/01/28 00:09:41;;;;;;;20.37;4.17;;;4.40;99.90;;;;;;5037186;28;20241;-80
2022/01/28 00:12:09;;;;;;;23.23;3.90;;;4.50;99.90;;;;;;5036661;28;20182;-81
2022/01/28 00:51:28;;;;;;;17.97;3.33;;;4.40;99.90;;;;;;5038789;28;20177;-81
2022/01/28 00:53:55;;;;;;;24.10;3.37;;;4.40;99.90;;;;;;5019561;28;20189;-81
2022/01/28 00:56:33;;;;;;;19.50;3.30;;;4.40;99.90;;;;;;5013786;28;20198;-81
2022/01/28 00:58:58;;;;;;;18.27;3.20;;;4.40;99.90;;;;;;5020098;28;20174;-82
2022/01/28 01:01:29;;;;;;;16.27;3.33;;;4.40;99.90;;;;;;5040582;28;20253;-82
2022/01/28 01:03:58;;;;;;;18.30;3.03;;;4.40;99.90;;;;;;5021769;28;20205;-81
2022/01/28 01:06:24;;;;;;;24.60;3.80;;;4.40;99.90;;;;;;5020069;28;20197;-81
2022/01/28 01:08:50;;;;;;;20.73;3.67;;;4.40;99.90;;;;;;5035316;28;20216;-81
2022/01/28 01:11:19;;;;;;;21.63;3.67;;;4.40;99.90;;;;;;5053104;28;20178;-81
2022/01/28 01:13:45;;;;;;;23.67;4.20;;;4.40;99.90;;;;;;5026005;28;20196;-81
2022/01/28 01:16:14;;;;;;;19.23;3.50;;;4.30;99.90;;;;;;5003395;28;20197;-82
2022/01/28 01:18:50;;;;;;;15.10;3.60;;;4.40;99.90;;;;;;5019175;28;20186;-81
2022/01/28 01:21:24;;;;;;;22.37;4.73;;;4.40;99.90;;;;;;5018992;28;20184;-81
2022/01/28 01:23:55;;;;;;;18.63;3.93;;;4.40;99.90;;;;;;5018788;28;20241;-80
2022/01/28 01:26:35;;;;;;;22.83;3.50;;;4.40;99.90;;;;;;5038396;28;20212;-81
2022/01/28 01:29:05;;;;;;;18.97;3.47;;;4.40;99.90;;;;;;5038459;28;20255;-81
2022/01/28 01:31:31;;;;;;;15.17;3.57;;;4.40;99.90;;;;;;5039092;28;20177;-80
2022/01/28 01:34:11;;;;;;;19.07;3.70;;;4.40;99.90;;;;;;5055011;28;20239;-81
2022/01/28 01:36:38;;;;;;;21.80;3.27;;;4.40;99.90;;;;;;5038237;28;20232;-81
2022/01/28 01:39:04;;;;;;;16.90;3.10;;;4.40;99.90;;;;;;5050585;28;20181;-81
2022/01/28 01:41:37;;;;;;;20.43;3.47;;;4.40;99.90;;;;;;5069184;28;20177;-82
2022/01/28 01:52:06;;;;;;;19.27;3.63;;;4.50;99.90;;;;;;5037554;28;20177;-80
2022/01/28 01:54:38;;;;;;;19.37;3.80;;;4.50;99.90;;;;;;5036341;28;20631;-80
2022/01/28 01:57:14;;;;;;;16.33;3.43;;;4.50;99.90;;;;;;5017768;28;20170;-82
2022/01/28 01:59:42;;;;;;;14.27;3.47;;;4.60;99.90;;;;;;5019207;28;20318;-81
2022/01/28 02:02:09;;;;;;;17.73;3.63;;;4.50;99.90;;;;;;5027248;28;20212;-81
2022/01/28 02:04:34;;;;;;;16.50;3.67;;;4.60;99.90;;;;;;5021158;28;20204;-81
2022/01/28 02:07:01;;;;;;;23.67;3.90;;;4.60;99.90;;;;;;5036840;28;20280;-82
2022/01/28 02:09:27;;;;;;;20.83;3.73;;;4.60;99.90;;;;;;5037827;28;20272;-80
2022/01/28 02:11:53;;;;;;;20.20;3.57;;;4.60;99.90;;;;;;5037731;28;20599;-81
2022/01/28 02:14:19;;;;;;;24.20;4.23;;;4.40;99.90;;;;;;5032043;28;20189;-80
2022/01/28 02:16:48;;;;;;;21.57;4.13;;;4.20;99.90;;;;;;5044121;28;20185;-80
2022/01/28 02:19:14;;;;;;;29.23;4.27;;;4.20;99.90;;;;;;5035855;28;20583;-80
2022/01/28 02:21:49;;;;;;;23.90;4.10;;;4.10;99.90;;;;;;5041411;28;20177;-79
2022/01/28 02:24:19;;;;;;;18.97;3.37;;;4.10;99.90;;;;;;5024660;28;20228;-80
2022/01/28 02:26:45;;;;;;;23.60;4.30;;;4.20;99.90;;;;;;5054396;28;20184;-80
2022/01/28 02:29:14;;;;;;;20.27;3.93;;;4.20;99.90;;;;;;5037869;28;20256;-79
2022/01/28 02:31:42;;;;;;;21.97;3.57;;;4.40;99.90;;;;;;5037709;28;20178;-81
2022/01/28 02:34:11;;;;;;;20.13;4.10;;;4.50;99.90;;;;;;5037511;28;20177;-81
2022/01/28 02:36:51;;;;;;;21.33;4.63;;;4.60;99.90;;;;;;5036707;28;20173;-81
2022/01/28 02:39:17;;;;;;;19.93;3.70;;;4.60;99.90;;;;;;5020226;28;20173;-81
2022/01/28 02:41:46;;;;;;;23.17;3.67;;;4.60;99.90;;;;;;5020608;28;20226;-81
2022/01/28 02:44:24;;;;;;;22.07;4.53;;;4.70;99.90;;;;;;5037303;28;20220;-80
2022/01/28 02:47:00;;;;;;;26.67;4.03;;;4.70;99.90;;;;;;5037208;28;20173;-80
2022/01/28 02:49:27;;;;;;;19.77;3.43;;;4.70;99.90;;;;;;5037860;28;20189;-80
2022/01/28 02:51:54;;;;;;;24.93;4.47;;;4.70;99.90;;;;;;5038421;28;20185;-80
2022/01/28 02:54:20;;;;;;;24.73;4.07;;;4.70;99.90;;;;;;5039003;28;20736;-80
2022/01/28 02:56:49;;;;;;;25.80;3.80;;;4.70;99.90;;;;;;5014670;28;20214;-80
2022/01/28 02:59:15;;;;;;;21.50;4.10;;;4.70;99.90;;;;;;5030479;28;20185;-80
2022/01/28 03:01:41;;;;;;;19.33;4.07;;;4.70;99.90;;;;;;5020817;28;20200;-80
2022/01/28 03:04:09;;;;;;;21.63;4.27;;;4.70;99.90;;;;;;5020066;28;20218;-81
2022/01/28 03:06:35;;;;;;;28.83;5.03;;;4.70;99.90;;;;;;5020160;28;20189;-80
2022/01/28 03:09:12;;;;;;;23.20;4.27;;;4.70;99.90;;;;;;5019561;28;20170;-80
2022/01/28 03:17:06;;;;;;;29.50;4.60;;;4.70;99.90;;;;;;5052821;28;20174;-80
2022/01/28 03:19:54;;;;;;;18.83;4.43;;;4.70;99.90;;;;;;5036212;28;20625;-80
2022/01/28 03:22:20;;;;;;;25.70;4.67;;;4.80;99.90;;;;;;5046316;28;20205;-80
2022/01/28 03:24:50;;;;;;;20.53;4.20;;;4.70;99.90;;;;;;5041907;28;20217;-81
2022/01/28 03:27:30;;;;;;;23.60;4.10;;;4.70;99.90;;;;;;5069379;23;20225;-82
2022/01/28 03:29:55;;;;;;;19.63;3.87;;;4.70;99.90;;;;;;5052746;28;20160;-81
2022/01/28 03:32:21;;;;;;;15.00;3.67;;;4.80;99.90;;;;;;5069783;28;20252;-79
2022/01/28 03:34:47;;;;;;;25.10;4.30;;;4.80;99.90;;;;;;5069401;28;20599;-80
2022/01/28 03:37:14;;;;;;;20.90;4.07;;;4.60;99.90;;;;;;5049291;28;20200;-81
2022/01/28 03:39:43;;;;;;;26.70;3.67;;;4.50;99.90;;;;;;5066644;28;20180;-80
2022/01/28 03:42:09;;;;;;;16.93;3.60;;;4.40;99.90;;;;;;5066588;28;20200;-80
2022/01/28 03:44:35;;;;;;;18.53;3.13;;;4.30;99.90;;;;;;5051621;28;20257;-82
2022/01/28 03:47:01;;;;;;;18.30;3.00;;;4.30;99.90;;;;;;5049634;28;20193;-81
2022/01/28 03:49:27;;;;;;;17.23;3.40;;;4.10;99.90;;;;;;5049955;28;20199;-82
2022/01/28 03:51:52;;;;;;;21.10;3.70;;;4.00;99.90;;;;;;5050470;28;20187;-81
2022/01/28 03:54:18;;;;;;;18.07;3.30;;;4.10;99.90;;;;;;5055378;28;20660;-81
2022/01/28 03:56:45;;;;;;;24.97;3.83;;;4.20;99.90;;;;;;5061516;28;20269;-82
2022/01/28 03:59:11;;;;;;;20.87;3.57;;;4.30;99.90;;;;;;5056991;28;20183;-79
2022/01/28 04:01:38;;;;;;;22.37;3.60;;;4.20;99.90;;;;;;5058068;28;20177;-79
2022/01/28 04:12:20;;;;;;;18.20;3.33;;;4.30;99.90;;;;;;5064217;28;20188;-83
2022/01/28 04:15:04;;;;;;;23.90;3.93;;;4.40;99.90;;;;;;5046361;28;20186;-81
2022/01/28 04:17:32;;;;;;;17.13;3.10;;;4.40;99.90;;;;;;5044521;28;20650;-81
2022/01/28 04:19:58;;;;;;;18.17;4.63;;;4.40;99.90;;;;;;5031197;28;20296;-80
2022/01/28 04:22:25;;;;;;;22.00;3.93;;;4.50;99.90;;;;;;5053370;28;20197;-80
2022/01/28 04:24:50;;;;;;;19.77;3.97;;;4.50;99.90;;;;;;5050874;28;20181;-80
2022/01/28 04:27:17;;;;;;;25.93;4.30;;;4.40;99.90;;;;;;5051717;28;20216;-80
2022/01/28 04:29:43;;;;;;;19.83;3.30;;;4.40;99.90;;;;;;5054812;28;20197;-81
2022/01/28 04:32:12;;;;;;;24.53;4.00;;;4.40;99.90;;;;;;5046985;28;20204;-80
2022/01/28 04:34:37;;;;;;;19.87;4.50;;;4.40;99.90;;;;;;5049010;28;20181;-80
2022/01/28 04:37:18;;;;;;;21.83;4.00;;;4.40;99.90;;;;;;5047960;28;20212;-80
2022/01/28 04:40:05;;;;;;;19.80;3.60;;;4.40;99.90;;;;;;5064116;28;20183;-80
2022/01/28 04:45:37;;;;;;;28.00;4.50;;;4.40;99.90;;;;;;5081318;28;20195;-78
2022/01/28 04:51:02;;;;;;;18.07;3.40;;;4.30;99.90;;;;;;5081500;28;20181;-78
2022/01/28 04:56:11;;;;;;;26.63;4.23;;;4.30;99.90;;;;;;5077768;28;20166;-81
2022/01/28 05:27:08;;;;;;;17.77;3.50;;;4.40;99.90;;;;;;5062353;28;20215;-81
2022/01/28 05:29:34;;;;;;;22.87;3.87;;;4.40;99.90;;;;;;5047984;28;20554;-81
2022/01/28 05:32:03;;;;;;;21.30;3.20;;;4.40;99.90;;;;;;5046925;28;20521;-81
2022/01/28 05:34:33;;;;;;;22.00;4.10;;;4.40;99.90;;;;;;5040160;28;20666;-82
2022/01/28 05:37:02;;;;;;;19.77;3.57;;;4.40;99.90;;;;;;5060674;28;20287;-82
2022/01/28 05:39:37;;;;;;;21.53;3.47;;;4.40;99.90;;;;;;5062510;28;20215;-82
2022/01/28 05:42:05;;;;;;;18.80;3.73;;;4.30;99.90;;;;;;5054421;28;20241;-81
2022/01/28 05:44:34;;;;;;;14.83;3.70;;;4.40;99.90;;;;;;5034439;28;20184;-81
2022/01/28 05:47:03;;;;;;;22.53;3.87;;;4.40;99.90;;;;;;5065179;28;20686;-81
2022/01/28 05:49:29;;;;;;;20.17;3.30;;;4.40;99.90;;;;;;5054593;28;20222;-84
2022/01/28 05:51:55;;;;;;;14.27;3.27;;;4.40;99.90;;;;;;5044655;28;20169;-82
2022/01/28 05:54:26;;;;;;;19.37;3.30;;;4.50;99.90;;;;;;5042701;28;20233;-81
2022/01/28 05:56:52;;;;;;;20.53;4.20;;;4.50;99.90;;;;;;5059803;28;20232;-81
2022/01/28 05:59:19;;;;;;;18.87;4.20;;;4.50;99.90;;;;;;5037511;28;20181;-81
2022/01/28 06:01:50;;;;;;;19.90;4.20;;;4.50;99.90;;;;;;5044940;28;20177;-81
2022/01/28 06:04:16;;;;;;;19.33;3.93;;;4.50;99.90;;;;;;5053522;28;20157;-80
2022/01/28 06:06:44;;;;;;;23.20;4.13;;;4.50;99.90;;;;;;5046111;28;20284;-81
2022/01/28 06:09:10;;;;;;;20.73;3.60;;;4.60;99.90;;;;;;5046951;28;20591;-81
2022/01/28 06:11:40;;;;;;;18.00;3.90;;;4.60;99.90;;;;;;5055228;28;20670;-81
2022/01/28 06:14:09;;;;;;;19.33;3.70;;;4.60;99.90;;;;;;5055339;28;20162;-80
2022/01/28 06:16:37;;;;;;;19.17;3.63;;;4.60;99.90;;;;;;5043846;28;20196;-80
2022/01/28 06:19:03;;;;;;;25.90;3.33;;;4.60;99.90;;;;;;5045515;28;20178;-80
2022/01/28 06:21:29;;;;;;;17.13;3.83;;;4.60;99.90;;;;;;5062925;28;20180;-80
2022/01/28 06:23:55;;;;;;;17.63;3.70;;;4.60;99.90;;;;;;5060026;28;20706;-79
2022/01/28 06:26:22;;;;;;;19.40;4.50;;;4.60;99.90;;;;;;5076321;28;20504;-79
2022/01/28 06:28:48;;;;;;;21.53;3.73;;;4.60;99.90;;;;;;5045096;28;20204;-81
2022/01/28 06:31:14;;;;;;;16.07;3.57;;;4.60;99.90;;;;;;5059608;28;20192;-82
2022/01/28 06:33:40;;;;;;;17.50;4.20;;;4.60;99.90;;;;;;5042182;28;20172;-79
2022/01/28 06:36:05;;;;;;;21.07;4.27;;;4.60;99.90;;;;;;5059779;28;20529;-81
2022/01/28 06:38:37;;;;;;;21.40;3.83;;;4.60;99.90;;;;;;5046336;28;20197;-81
2022/01/28 06:41:03;;;;;;;19.20;4.07;;;4.60;99.90;;;;;;5066070;28;20185;-80
2022/01/28 06:43:29;;;;;;;15.43;3.33;;;4.50;99.90;;;;;;5035714;28;20224;-79
2022/01/28 06:45:55;;;;;;;15.57;3.60;;;4.60;99.90;;;;;;5035502;28;20184;-81
2022/01/28 06:48:21;;;;;;;17.73;4.27;;;4.60;99.90;;;;;;5034874;28;20197;-80
2022/01/28 06:50:48;;;;;;;17.13;3.23;;;4.60;99.90;;;;;;5036239;28;20204;-81
2022/01/28 06:53:14;;;;;;;21.63;3.83;;;4.60;99.90;;;;;;5051215;28;20794;-80
2022/01/28 06:55:55;;;;;;;20.03;3.90;;;4.60;99.90;;;;;;5055521;28;20181;-81
2022/01/28 06:58:36;;;;;;;14.47;3.53;;;4.60;99.90;;;;;;5066465;28;20207;-81
2022/01/28 07:01:02;;;;;;;24.77;3.70;;;4.60;99.90;;;;;;5059511;28;20180;-78
2022/01/28 07:03:28;;;;;;;23.00;3.53;;;4.60;99.90;;;;;;5077095;28;20238;-79
2022/01/28 07:05:53;;;;;;;20.23;3.90;;;4.60;99.90;;;;;;5058009;28;20260;-81
2022/01/28 07:08:19;;;;;;;18.73;3.30;;;4.60;99.90;;;;;;5059362;28;20216;-81
2022/01/28 07:10:45;;;;;;;18.50;4.03;;;4.60;99.90;;;;;;5062138;28;20169;-80
2022/01/28 07:13:13;;;;;;;19.20;4.03;;;4.60;99.90;;;;;;5038059;28;20182;-81
2022/01/28 07:15:39;;;;;;;16.67;4.10;;;4.50;99.90;;;;;;5038902;28;20211;-80
2022/01/28 07:18:07;;;;;;;21.73;3.97;;;4.70;99.90;;;;;;5056599;28;20196;-80
2022/01/28 07:20:35;;;;;;;21.20;4.03;;;4.60;99.90;;;;;;5056438;28;20181;-81
2022/01/28 07:23:02;;;;;;;24.60;4.00;;;4.50;99.90;;;;;;5048683;28;20205;-82
2022/01/28 07:25:28;;;;;;;22.30;3.67;;;4.50;99.90;;;;;;5040521;28;20185;-81
2022/01/28 07:27:54;;;;;;;27.03;4.17;;;4.40;99.90;;;;;;5064198;28;20219;-82
2022/01/28 07:30:20;;;;;;;19.60;4.00;;;4.40;99.90;;;;;;5044624;28;20178;-80
2022/01/28 07:32:49;;;;;;;19.93;3.67;;;4.30;99.90;;;;;;5054263;28;20181;-79
2022/01/28 07:35:16;;;;;;;27.70;3.93;;;4.40;99.90;;;;;;5043918;28;20200;-81
2022/01/28 07:37:42;;;;;;;24.93;4.13;;;4.30;99.90;;;;;;5061990;28;20272;-81
2022/01/28 07:40:08;;;;;;;21.90;4.03;;;4.30;99.90;;;;;;5046710;28;20201;-81
2022/01/28 07:42:37;;;;;;;24.53;4.43;;;4.30;99.90;;;;;;5038821;28;20227;-82
2022/01/28 07:45:04;;;;;;;26.23;4.33;;;4.20;99.90;;;;;;5065672;28;20185;-81
2022/01/28 07:47:30;;;;;;;18.80;4.00;;;4.20;99.90;;;;;;5065553;28;20228;-81
2022/01/28 07:49:56;;;;;;;27.70;4.40;;;4.20;99.90;;;;;;5047876;28;20169;-82
2022/01/28 07:52:22;;;;;;;24.53;4.30;;;4.20;99.90;;;;;;5059396;28;20181;-81
2022/01/28 07:54:49;;;;;;;23.23;4.33;;;4.10;99.90;;;;;;5038306;28;20183;-82
2022/01/28 07:57:22;;;;;;;20.30;4.27;;;4.20;99.90;;;;;;5075188;28;20204;-81
2022/01/28 07:59:49;;;;;;;22.73;4.60;;;4.20;99.90;;;;;;5038512;28;20219;-82
2022/01/28 08:02:15;;;;;;;17.87;4.00;;;4.10;99.90;;;;;;5060595;28;20200;-81
2022/01/28 08:04:41;;;;;;;24.60;3.97;;;4.10;99.90;;;;;;5051889;28;20195;-81
2022/01/28 08:07:07;;;;;;;24.27;5.37;;;4.10;99.90;;;;;;5053998;28;20201;-82
2022/01/28 08:09:34;;;;;;;24.10;4.50;;;4.10;99.90;;;;;;5044379;28;20222;-82
2022/01/28 08:11:59;;;;;;;24.83;4.00;;;4.10;99.90;;;;;;5074880;28;20192;-81
2022/01/28 08:14:31;;;;;;;25.10;4.40;;;4.10;99.90;;;;;;5051152;28;20352;-82
2022/01/28 08:16:58;;;;;;;28.60;4.23;;;4.10;99.90;;;;;;5036345;28;20200;-82
2022/01/28 08:19:24;;;;;;;24.43;4.47;;;4.10;99.90;;;;;;5030346;28;20177;-82
2022/01/28 08:21:50;;;;;;;22.47;4.07;;;4.10;99.90;;;;;;5027959;28;20624;-81
2022/01/28 08:24:17;;;;;;;28.53;4.77;;;4.10;99.90;;;;;;5058007;28;20243;-82
2022/01/28 08:26:46;;;;;;;25.87;4.40;;;4.10;99.90;;;;;;5045960;28;20556;-82
2022/01/28 08:29:12;;;;;;;21.17;4.57;;;4.10;99.90;;;;;;5069217;28;20291;-81
2022/01/28 08:31:37;;;;;;;33.37;4.97;;;4.10;99.90;;;;;;5047703;28;20208;-82
2022/01/28 08:34:03;;;;;;;20.20;5.07;;;4.10;99.90;;;;;;5041902;28;20708;-81
2022/01/28 08:36:30;;;;;;;23.00;4.77;;;4.10;99.90;;;;;;5043367;28;20188;-81
2022/01/28 08:38:56;;;;;;;19.00;4.13;;;4.10;99.90;;;;;;5066488;28;20172;-81
2022/01/28 08:41:23;;;;;;;22.77;5.23;;;4.10;99.90;;;;;;5041723;28;20181;-81
2022/01/28 08:43:52;;;;;;;24.30;4.70;;;4.10;99.90;;;;;;5042410;28;20212;-82
2022/01/28 08:46:25;;;;;;;28.80;5.40;;;4.10;99.90;;;;;;5039443;28;20208;-82
2022/01/28 08:48:50;;;;;;;26.93;4.27;;;4.10;99.90;;;;;;5046088;28;20172;-82
2022/01/28 08:51:16;;;;;;;25.27;5.40;;;4.10;99.90;;;;;;5051239;28;20173;-80
2022/01/28 08:53:42;;;;;;;27.13;5.23;;;4.10;99.90;;;;;;5058094;28;20184;-82
2022/01/28 08:56:09;;;;;;;29.33;4.90;;;4.20;99.90;;;;;;5038910;28;20269;-80
2022/01/28 08:58:35;;;;;;;22.83;4.77;;;4.20;99.90;;;;;;5047424;28;20259;-82
2022/01/28 09:01:03;;;;;;;31.43;4.70;;;4.20;99.90;;;;;;5064599;28;20184;-81
2022/01/28 09:03:29;;;;;;;28.87;5.07;;;4.20;99.90;;;;;;5058342;28;20209;-81
2022/01/28 09:05:56;;;;;;;24.73;4.70;;;4.20;99.90;;;;;;5051743;28;20192;-82
2022/01/28 09:08:22;;;;;;;23.50;4.80;;;4.20;99.90;;;;;;5044932;28;20200;-82
2022/01/28 09:11:30;;;;;;;20.63;4.73;;;4.20;99.90;;;;;;5058653;28;20326;-81
2022/01/28 09:13:52;;;;;;;21.47;4.43;;;4.30;99.90;;;;;;5058207;28;20181;-82
2022/01/28 09:16:21;;;;;;;30.67;5.10;;;4.30;99.90;;;;;;5058999;28;20180;-82
2022/01/28 09:18:48;;;;;;;26.87;4.37;;;4.30;99.90;;;;;;5053494;28;20200;-83
2022/01/28 09:21:19;;;;;;;23.73;4.33;;;4.40;99.90;;;;;;5045051;28;20535;-82
2022/01/28 09:23:46;;;;;;;25.57;4.13;;;4.40;99.90;;;;;;5039647;28;20193;-81
2022/01/28 09:26:16;;;;;;;28.07;4.90;;;4.50;99.90;;;;;;5037174;28;20199;-82
2022/01/28 09:31:08;;;;;;;25.90;4.33;;;4.50;99.90;;;;;;4992345;28;20230;-80
2022/01/28 09:33:34;;;;;;;25.97;4.23;;;4.50;99.90;;;;;;5015267;28;20250;-81
2022/01/28 09:36:00;;;;;;;21.93;5.10;;;4.60;99.90;;;;;;5017719;28;20210;-81
2022/01/28 09:38:30;;;;;;;31.37;5.90;;;4.50;99.90;;;;;;5013015;28;20317;-82
2022/01/28 09:40:56;;;;;;;27.37;4.10;;;4.50;99.90;;;;;;5023075;28;20190;-80
2022/01/28 09:43:26;;;;;;;25.60;4.70;;;4.60;99.90;;;;;;5003150;28;20203;-80
2022/01/28 09:45:52;;;;;;;24.57;5.07;;;4.60;99.90;;;;;;4999589;28;20194;-80
2022/01/28 09:48:19;;;;;;;27.80;4.33;;;4.60;99.90;;;;;;4977060;28;20205;-80
2022/01/28 09:50:46;;;;;;;25.27;4.43;;;4.70;99.90;;;;;;4999931;28;20264;-80
2022/01/28 09:53:14;;;;;;;32.63;5.90;;;4.70;99.90;;;;;;4994741;28;20172;-80
2022/01/28 09:55:40;;;;;;;27.07;4.83;;;4.70;99.90;;;;;;4985586;28;20218;-80
2022/01/28 09:58:07;;;;;;;28.70;4.80;;;4.80;99.90;;;;;;4982114;28;20175;-81
2022/01/28 10:00:34;;;;;;;23.93;4.53;;;4.80;99.90;;;;;;5000012;28;20206;-80
2022/01/28 10:03:03;;;;;;;20.87;4.20;;;4.80;99.90;;;;;;4990465;28;20221;-80
2022/01/28 10:05:32;;;;;;;24.50;4.60;;;4.80;99.90;;;;;;4990242;28;20178;-80
2022/01/28 10:08:03;;;;;;;18.63;4.50;;;4.90;99.90;;;;;;4985629;28;20190;-80
2022/01/28 10:10:40;;;;;;;21.23;4.13;;;4.90;99.90;;;;;;5013583;28;20195;-80
2022/01/28 10:13:17;;;;;;;26.17;5.07;;;4.90;99.90;;;;;;4993658;28;20173;-80
2022/01/28 10:15:58;;;;;;;25.93;4.70;;;5.00;99.90;;;;;;4992959;28;20190;-80
2022/01/28 10:18:44;;;;;;;23.97;4.83;;;5.00;99.90;;;;;;4993695;28;20190;-80
2022/01/28 10:21:38;;;;;;;31.57;5.50;;;5.00;99.90;;;;;;4996431;28;20190;-81
2022/01/28 10:24:25;;;;;;;23.70;4.00;;;5.00;99.90;;;;;;4992304;28;20191;-80
2022/01/28 10:27:05;;;;;;;31.73;5.03;;;5.10;99.90;;;;;;4970999;28;20183;-83
2022/01/28 10:29:35;;;;;;;24.77;4.23;;;5.10;99.90;;;;;;4975612;28;20216;-84
2022/01/28 10:32:27;;;;;;;24.10;4.00;;;5.20;99.90;;;;;;4998277;28;20214;-80
2022/01/28 10:34:53;;;;;;;21.13;3.90;;;5.20;99.90;;;;;;4997403;28;20235;-82
2022/01/28 10:37:29;;;;;;;24.77;4.23;;;5.30;99.90;;;;;;4980435;28;20202;-83
2022/01/28 10:39:58;;;;;;;29.13;4.73;;;5.30;99.90;;;;;;4983696;28;20194;-83
2022/01/28 10:42:51;;;;;;;24.87;4.47;;;5.40;99.90;;;;;;5005857;28;20218;-83
2022/01/28 10:45:22;;;;;;;21.83;4.57;;;5.50;99.90;;;;;;4998926;28;20614;-84
2022/01/28 10:47:55;;;;;;;21.70;4.13;;;5.50;99.90;;;;;;5002632;28;20171;-82
2022/01/28 10:50:26;;;;;;;25.50;4.53;;;5.50;99.90;;;;;;4988991;28;20192;-83
2022/01/28 10:53:13;;;;;;;25.47;4.83;;;5.50;99.90;;;;;;5000979;28;20181;-83
2022/01/28 10:55:44;;;;;;;29.83;5.00;;;5.50;99.90;;;;;;4990172;28;20207;-82
2022/01/28 10:58:20;;;;;;;24.20;5.50;;;5.50;99.90;;;;;;4996005;28;20615;-82
2022/01/28 11:00:53;;;;;;;22.13;4.50;;;5.60;99.90;;;;;;5001480;28;20278;-81
2022/01/28 11:03:26;;;;;;;20.57;4.70;;;5.60;99.90;;;;;;4998069;28;20215;-82
2022/01/28 11:05:56;;;;;;;17.57;4.73;;;5.60;99.90;;;;;;4998006;28;20182;-82
2022/01/28 11:08:24;;;;;;;19.37;4.53;;;5.60;99.90;;;;;;4996792;28;20202;-82
2022/01/28 11:10:50;;;;;;;26.03;4.37;;;5.60;99.90;;;;;;4993988;28;20203;-83
2022/01/28 11:13:17;;;;;;;20.60;4.27;;;5.60;99.90;;;;;;4985605;28;20188;-82
2022/01/28 11:15:43;;;;;;;25.97;5.90;;;5.70;99.90;;;;;;4977819;28;20424;-81
2022/01/28 11:18:10;;;;;;;27.30;4.87;;;5.70;99.90;;;;;;4975194;28;20313;-82
2022/01/28 11:21:02;;;;;;;21.70;4.10;;;5.70;99.90;;;;;;4990437;28;20586;-82
2022/01/28 11:24:06;;;;;;;21.17;4.40;;;5.70;99.90;;;;;;4996056;28;20196;-82
2022/01/28 11:27:12;;;;;;;25.23;4.87;;;5.80;99.90;;;;;;4982290;28;20185;-80
2022/01/28 11:29:38;;;;;;;20.00;3.73;;;5.80;99.90;;;;;;4973678;28;20215;-80
2022/01/28 11:32:17;;;;;;;20.63;4.60;;;5.80;99.90;;;;;;5016748;28;20420;-80
2022/01/28 11:34:58;;;;;;;18.63;4.07;;;5.80;99.90;;;;;;4997831;28;20388;-81
2022/01/28 11:37:33;;;;;;;24.87;4.90;;;5.80;99.90;;;;;;4990873;28;20199;-81
2022/01/28 11:40:07;;;;;;;20.97;4.23;;;5.80;99.90;;;;;;4982675;28;20222;-82
2022/01/28 11:42:33;;;;;;;23.73;4.17;;;5.90;99.90;;;;;;4991905;28;20597;-77
2022/01/28 11:45:01;;;;;;;26.00;4.60;;;5.90;99.90;;;;;;4992627;28;20215;-78
2022/01/28 11:47:39;;;;;;;22.23;4.43;;;6.00;99.90;;;;;;4986066;28;20181;-77
2022/01/28 11:50:13;;;;;;;24.30;4.33;;;6.00;99.90;;;;;;4981360;28;20231;-77
2022/01/28 11:52:51;;;;;;;22.57;4.03;;;6.00;99.90;;;;;;4987645;28;20181;-83
2022/01/28 11:55:28;;;;;;;32.63;4.37;;;6.00;99.90;;;;;;4986926;28;20183;-84
2022/01/28 11:57:59;;;;;;;22.40;4.27;;;6.00;99.90;;;;;;4992599;28;20179;-82
2022/01/28 12:00:47;;;;;;;15.67;3.87;;;6.00;99.90;;;;;;5015888;28;20204;-83
2022/01/28 12:03:22;;;;;;;16.57;3.90;;;6.00;99.90;;;;;;5005568;28;20212;-83
2022/01/28 12:05:48;;;;;;;19.17;4.13;;;6.00;99.90;;;;;;4983357;28;20546;-81
2022/01/28 12:08:16;;;;;;;25.33;5.00;;;6.10;99.90;;;;;;4997183;28;20638;-83
2022/01/28 12:10:45;;;;;;;23.90;4.37;;;6.10;99.90;;;;;;4995980;28;20204;-82
2022/01/28 12:13:18;;;;;;;25.47;4.83;;;6.20;99.90;;;;;;4970701;28;20184;-83
2022/01/28 12:16:09;;;;;;;20.23;4.33;;;6.20;99.90;;;;;;4969678;28;20179;-82
2022/01/28 12:18:55;;;;;;;23.17;4.47;;;6.10;99.90;;;;;;5001837;28;20182;-80
2022/01/28 12:21:28;;;;;;;21.37;5.03;;;6.10;99.90;;;;;;4998018;28;20215;-80
2022/01/28 12:24:20;;;;;;;23.40;4.37;;;6.20;99.90;;;;;;5005101;28;20246;-83
2022/01/28 12:27:00;;;;;;;25.00;4.60;;;6.20;99.90;;;;;;4998726;28;20189;-83
2022/01/28 12:29:37;;;;;;;22.30;3.90;;;6.20;99.90;;;;;;4984176;28;20212;-84
2022/01/28 12:32:04;;;;;;;22.83;3.97;;;6.20;99.90;;;;;;5007570;28;20193;-83
2022/01/28 12:34:31;;;;;;;21.93;4.50;;;6.20;99.90;;;;;;5003820;28;20196;-84
2022/01/28 12:37:02;;;;;;;20.20;4.30;;;6.20;99.90;;;;;;5000374;28;20187;-83
2022/01/28 12:39:33;;;;;;;19.40;3.80;;;6.10;99.90;;;;;;4995026;28;20206;-83
2022/01/28 12:42:07;;;;;;;20.83;4.53;;;6.30;99.90;;;;;;5000888;28;20182;-85
2022/01/28 12:44:35;;;;;;;23.57;4.00;;;6.20;99.90;;;;;;4988483;28;20200;-83
2022/01/28 12:47:18;;;;;;;23.17;5.10;;;6.20;99.90;;;;;;4985089;28;20177;-83
2022/01/28 12:49:46;;;;;;;23.63;5.80;;;6.20;99.90;;;;;;4984785;28;20194;-84
2022/01/28 12:52:12;;;;;;;24.03;5.40;;;6.20;99.90;;;;;;5003448;28;20189;-85
2022/01/28 12:54:39;;;;;;;21.87;4.23;;;6.20;99.90;;;;;;5002388;28;20630;-81
2022/01/28 12:57:10;;;;;;;22.40;4.40;;;6.20;99.90;;;;;;4994355;28;20270;-83
2022/01/28 12:59:38;;;;;;;21.23;4.40;;;6.20;99.90;;;;;;4987138;28;20298;-83
2022/01/28 13:02:07;;;;;;;28.90;5.50;;;6.20;99.90;;;;;;4992493;28;20176;-83
2022/01/28 13:10:23;;;;;;;25.07;4.40;;;6.20;99.90;;;;;;5020018;28;20234;-85
2022/01/28 13:12:50;;;;;;;22.60;4.37;;;6.20;99.90;;;;;;5001776;28;20188;-84
2022/01/28 13:15:19;;;;;;;21.60;4.43;;;6.10;99.90;;;;;;4983864;28;20178;-83
2022/01/28 13:17:56;;;;;;;25.13;4.43;;;6.10;99.90;;;;;;4994201;28;20209;-85
2022/01/28 13:20:24;;;;;;;20.27;4.07;;;6.10;99.90;;;;;;5001875;28;20201;-82
2022/01/28 13:22:54;;;;;;;20.87;4.67;;;6.00;99.90;;;;;;4991408;28;20223;-83
2022/01/28 13:25:23;;;;;;;28.13;4.63;;;6.00;99.90;;;;;;4992004;28;20182;-83
2022/01/28 13:27:55;;;;;;;20.43;4.50;;;6.00;99.90;;;;;;4997593;28;20189;-83
2022/01/28 13:30:21;;;;;;;26.53;4.83;;;6.10;99.90;;;;;;5002219;28;20218;-83
2022/01/28 13:32:50;;;;;;;22.47;4.40;;;6.00;99.90;;;;;;5005245;28;20658;-83
2022/01/28 13:35:23;;;;;;;26.77;4.67;;;6.00;99.90;;;;;;4999924;28;20169;-83
2022/01/28 13:37:55;;;;;;;29.97;5.17;;;6.00;99.90;;;;;;5009351;28;20179;-83
2022/01/28 13:40:21;;;;;;;18.57;4.07;;;6.00;99.90;;;;;;4999995;28;20581;-84
2022/01/28 13:43:13;;;;;;;25.97;4.53;;;6.00;99.90;;;;;;4989343;28;20227;-83
2022/01/28 13:45:51;;;;;;;30.87;5.73;;;6.00;99.90;;;;;;4983623;28;20631;-83
2022/01/28 13:48:39;;;;;;;20.33;4.67;;;5.90;99.90;;;;;;4993821;28;20178;-83
2022/01/28 13:51:15;;;;;;;29.87;5.33;;;5.90;99.90;;;;;;4973703;28;20184;-84
2022/01/28 13:56:42;;;;;;;19.50;4.37;;;5.80;99.90;;;;;;4996572;28;20187;-82
2022/01/28 13:59:15;;;;;;;28.47;4.70;;;5.70;99.90;;;;;;5015880;28;20231;-83
2022/01/28 14:01:47;;;;;;;27.87;4.70;;;5.60;99.90;;;;;;4992212;28;20574;-83
2022/01/28 14:04:25;;;;;;;19.73;4.40;;;5.50;99.90;;;;;;4995622;28;20206;-83
2022/01/28 14:07:08;;;;;;;23.13;4.80;;;5.50;99.90;;;;;;4999121;28;20239;-83
2022/01/28 14:09:46;;;;;;;23.37;3.90;;;5.50;99.90;;;;;;4992330;28;20266;-84
2022/01/28 14:12:41;;;;;;;19.50;4.40;;;5.60;99.90;;;;;;5017200;28;20178;-83
2022/01/28 14:15:25;;;;;;;22.33;4.60;;;5.60;99.90;;;;;;5000581;28;20178;-82
2022/01/28 14:17:53;;;;;;;24.17;4.47;;;5.60;99.90;;;;;;5000070;28;20203;-83
2022/01/28 14:20:19;;;;;;;34.53;5.13;;;5.60;99.90;;;;;;5009601;28;20206;-83
2022/01/28 14:22:46;;;;;;;24.73;4.13;;;5.70;99.90;;;;;;5003914;28;20209;-80
2022/01/28 14:25:11;;;;;;;20.13;5.50;;;5.70;99.90;;;;;;5018307;28;20246;-82
2022/01/28 14:30:05;;;;;;;19.67;4.70;;;5.70;99.90;;;;;;5018304;28;20200;-83
2022/01/28 14:32:33;;;;;;;24.60;4.77;;;5.70;99.90;;;;;;4993640;28;20304;-84
2022/01/28 14:35:02;;;;;;;25.53;5.07;;;5.80;99.90;;;;;;5001675;28;20172;-83
2022/01/28 14:37:28;;;;;;;29.50;6.50;;;5.70;99.90;;;;;;4974398;28;20184;-84
2022/01/28 14:39:55;;;;;;;28.27;5.20;;;5.70;99.90;;;;;;4998692;28;20306;-83
2022/01/28 14:42:25;;;;;;;19.40;4.40;;;5.70;99.90;;;;;;5002187;28;20209;-85
2022/01/28 14:44:51;;;;;;;20.73;4.03;;;5.60;99.90;;;;;;4984428;28;20266;-83
2022/01/28 14:47:18;;;;;;;25.43;4.40;;;5.60;99.90;;;;;;4980503;28;20171;-83
2022/01/28 14:49:44;;;;;;;16.03;3.87;;;5.50;99.90;;;;;;4984734;28;20314;-85
2022/01/28 14:52:16;;;;;;;24.03;4.23;;;5.50;99.90;;;;;;4990026;28;20311;-85
2022/01/28 14:54:42;;;;;;;28.17;4.47;;;5.40;99.90;;;;;;4985651;28;20172;-84
2022/01/28 14:57:10;;;;;;;23.10;4.00;;;5.40;99.90;;;;;;4972810;28;20183;-83